sensor_id;sensor_type;location;lat;lon;timestamp;temperature;humidity
46898;DHT22;32646;50.958;6.258;2023-02-12T00:02:24;6.40;99.90
46898;DHT22;32646;50.958;6.258;2023-02-12T00:04:51;6.40;99.90
46898;DHT22;32646;50.958;6.258;2023-02-12T00:07:18;6.30;99.90
46898;DHT22;32646;50.958;6.258;2023-02-12T00:09:44;6.40;99.90
46898;DHT22;32646;50.958;6.258;2023-02-12T00:12:11;6.30;99.90
46898;DHT22;32646;50.958;6.258;2023-02-12T00:14:37;6.30;99.90
46898;DHT22;32646;50.958;6.258;2023-02-12T00:17:04;6.30;99.90
46898;DHT22;32646;50.958;6.258;2023-02-12T00:19:30;6.20;99.90
46898;DHT22;32646;50.958;6.258;2023-02-12T00:21:57;6.20;99.90
46898;DHT22;32646;50.958;6.258;2023-02-12T00:24:23;6.20;99.90
46898;DHT22;32646;50.958;6.258;2023-02-12T00:26:50;6.20;99.90
46898;DHT22;32646;50.958;6.258;2023-02-12T00:29:17;6.10;99.90
46898;DHT22;32646;50.958;6.258;2023-02-12T00:31:43;6.10;99.90
46898;DHT22;32646;50.958;6.258;2023-02-12T00:34:10;6.00;99.90
46898;DHT22;32646;50.958;6.258;2023-02-12T00:36:37;6.00;99.90
46898;DHT22;32646;50.958;6.258;2023-02-12T00:39:03;6.10;99.90
46898;DHT22;32646;50.958;6.258;2023-02-12T00:41:30;6.10;99.90
46898;DHT22;32646;50.958;6.258;2023-02-12T00:43:56;6.10;99.90
46898;DHT22;32646;50.958;6.258;2023-02-12T00:46:23;6.20;99.90
46898;DHT22;32646;50.958;6.258;2023-02-12T00:48:50;6.20;99.90
46898;DHT22;32646;50.958;6.258;2023-02-12T00:51:16;6.20;99.90
46898;DHT22;32646;50.958;6.258;2023-02-12T00:53:43;6.20;99.90
46898;DHT22;32646;50.958;6.258;2023-02-12T00:56:09;6.20;99.90
46898;DHT22;32646;50.958;6.258;2023-02-12T00:58:36;6.30;99.90
46898;DHT22;32646;50.958;6.258;2023-02-12T01:01:03;6.20;99.90
46898;DHT22;32646;50.958;6.258;2023-02-12T01:03:30;6.30;99.90
46898;DHT22;32646;50.958;6.258;2023-02-12T01:05:56;6.30;99.90
46898;DHT22;32646;50.958;6.258;2023-02-12T01:08:23;6.30;99.90
46898;DHT22;32646;50.958;6.258;2023-02-12T01:10:58;6.20;99.90
46898;DHT22;32646;50.958;6.258;2023-02-12T01:13:25;6.20;99.90
46898;DHT22;32646;50.958;6.258;2023-02-12T01:16:19;6.20;99.90
46898;DHT22;32646;50.958;6.258;2023-02-12T01:18:47;6.20;99.90
46898;DHT22;32646;50.958;6.258;2023-02-12T01:21:20;6.10;99.90
46898;DHT22;32646;50.958;6.258;2023-02-12T01:23:47;6.20;99.90
46898;DHT22;32646;50.958;6.258;2023-02-12T01:26:15;6.10;99.90
46898;DHT22;32646;50.958;6.258;2023-02-12T01:28:43;6.10;99.90
46898;DHT22;32646;50.958;6.258;2023-02-12T01:31:13;6.10;99.90
46898;DHT22;32646;50.958;6.258;2023-02-12T01:33:40;6.10;99.90
46898;DHT22;32646;50.958;6.258;2023-02-12T01:36:08;6.10;99.90
46898;DHT22;32646;50.958;6.258;2023-02-12T01:38:35;6.10;99.90
46898;DHT22;32646;50.958;6.258;2023-02-12T01:41:16;6.20;99.90
46898;DHT22;32646;50.958;6.258;2023-02-12T01:43:43;6.20;99.90
46898;DHT22;32646;50.958;6.258;2023-02-12T01:46:13;6.20;99.90
46898;DHT22;32646;50.958;6.258;2023-02-12T01:48:45;6.20;99.90
46898;DHT22;32646;50.958;6.258;2023-02-12T01:51:15;6.20;99.90
46898;DHT22;32646;50.958;6.258;2023-02-12T01:53:49;6.20;99.90
46898;DHT22;32646;50.958;6.258;2023-02-12T01:56:16;6.20;99.90
46898;DHT22;32646;50.958;6.258;2023-02-12T01:58:44;6.10;99.90
46898;DHT22;32646;50.958;6.258;2023-02-12T02:01:22;6.20;99.90
46898;DHT22;32646;50.958;6.258;2023-02-12T02:03:52;6.10;99.90
46898;DHT22;32646;50.958;6.258;2023-02-12T02:06:28;6.10;99.90
46898;DHT22;32646;50.958;6.258;2023-02-12T02:08:56;6.10;99.90
46898;DHT22;32646;50.958;6.258;2023-02-12T02:11:23;6.10;99.90
46898;DHT22;32646;50.958;6.258;2023-02-12T02:13:50;6.10;99.90
46898;DHT22;32646;50.958;6.258;2023-02-12T02:16:25;6.10;99.90
46898;DHT22;32646;50.958;6.258;2023-02-12T02:18:55;6.00;99.90
46898;DHT22;32646;50.958;6.258;2023-02-12T02:21:45;6.00;99.90
46898;DHT22;32646;50.958;6.258;2023-02-12T02:24:31;5.90;99.90
46898;DHT22;32646;50.958;6.258;2023-02-12T02:27:07;5.90;99.90
46898;DHT22;32646;50.958;6.258;2023-02-12T02:32:42;6.00;99.90
46898;DHT22;32646;50.958;6.258;2023-02-12T02:35:14;6.00;99.90
46898;DHT22;32646;50.958;6.258;2023-02-12T02:37:53;6.00;99.90
46898;DHT22;32646;50.958;6.258;2023-02-12T02:40:32;6.00;99.90
46898;DHT22;32646;50.958;6.258;2023-02-12T02:43:15;6.00;99.90
46898;DHT22;32646;50.958;6.258;2023-02-12T02:45:47;5.90;99.90
46898;DHT22;32646;50.958;6.258;2023-02-12T02:48:26;6.00;99.90
46898;DHT22;32646;50.958;6.258;2023-02-12T02:50:58;5.90;99.90
46898;DHT22;32646;50.958;6.258;2023-02-12T02:53:48;5.90;99.90
46898;DHT22;32646;50.958;6.258;2023-02-12T02:56:16;5.90;99.90
46898;DHT22;32646;50.958;6.258;2023-02-12T02:58:56;6.00;99.90
46898;DHT22;32646;50.958;6.258;2023-02-12T03:01:49;5.90;99.90
46898;DHT22;32646;50.958;6.258;2023-02-12T03:04:40;5.90;99.90
46898;DHT22;32646;50.958;6.258;2023-02-12T03:07:36;5.80;99.90
46898;DHT22;32646;50.958;6.258;2023-02-12T03:10:12;5.80;99.90
46898;DHT22;32646;50.958;6.258;2023-02-12T03:12:50;5.80;99.90
46898;DHT22;32646;50.958;6.258;2023-02-12T03:15:23;5.80;99.90
46898;DHT22;32646;50.958;6.258;2023-02-12T03:17:52;5.80;99.90
46898;DHT22;32646;50.958;6.258;2023-02-12T03:20:25;5.80;99.90
46898;DHT22;32646;50.958;6.258;2023-02-12T03:23:04;5.90;99.90
46898;DHT22;32646;50.958;6.258;2023-02-12T03:25:37;5.80;99.90
46898;DHT22;32646;50.958;6.258;2023-02-12T03:30:41;5.80;99.90
46898;DHT22;32646;50.958;6.258;2023-02-12T03:33:41;5.80;99.90
46898;DHT22;32646;50.958;6.258;2023-02-12T03:39:19;5.80;99.90
46898;DHT22;32646;50.958;6.258;2023-02-12T03:42:06;5.80;99.90
46898;DHT22;32646;50.958;6.258;2023-02-12T03:44:57;5.80;99.90
46898;DHT22;32646;50.958;6.258;2023-02-12T03:50:18;5.70;99.90
46898;DHT22;32646;50.958;6.258;2023-02-12T03:52:46;5.80;99.90
46898;DHT22;32646;50.958;6.258;2023-02-12T03:55:15;5.80;99.90
46898;DHT22;32646;50.958;6.258;2023-02-12T03:57:45;5.90;99.90
46898;DHT22;32646;50.958;6.258;2023-02-12T04:00:20;6.00;99.90
46898;DHT22;32646;50.958;6.258;2023-02-12T04:02:46;5.90;99.90
46898;DHT22;32646;50.958;6.258;2023-02-12T04:05:22;5.90;99.90
46898;DHT22;32646;50.958;6.258;2023-02-12T04:07:49;5.90;99.90
46898;DHT22;32646;50.958;6.258;2023-02-12T04:10:17;6.00;99.90
46898;DHT22;32646;50.958;6.258;2023-02-12T04:12:53;5.90;99.90
46898;DHT22;32646;50.958;6.258;2023-02-12T04:15:37;5.90;99.90
46898;DHT22;32646;50.958;6.258;2023-02-12T04:18:13;5.80;99.90
46898;DHT22;32646;50.958;6.258;2023-02-12T04:21:02;5.80;99.90
46898;DHT22;32646;50.958;6.258;2023-02-12T04:23:59;5.80;99.90
46898;DHT22;32646;50.958;6.258;2023-02-12T04:26:51;5.80;99.90
46898;DHT22;32646;50.958;6.258;2023-02-12T04:29:34;5.80;99.90
46898;DHT22;32646;50.958;6.258;2023-02-12T04:32:11;5.80;99.90
46898;DHT22;32646;50.958;6.258;2023-02-12T04:37:52;5.70;99.90
46898;DHT22;32646;50.958;6.258;2023-02-12T04:40:20;5.80;99.90
46898;DHT22;32646;50.958;6.258;2023-02-12T04:42:50;5.90;99.90
46898;DHT22;32646;50.958;6.258;2023-02-12T04:45:26;5.90;99.90
46898;DHT22;32646;50.958;6.258;2023-02-12T04:47:52;5.90;99.90
46898;DHT22;32646;50.958;6.258;2023-02-12T04:50:19;5.90;99.90
46898;DHT22;32646;50.958;6.258;2023-02-12T04:52:46;5.80;99.90
46898;DHT22;32646;50.958;6.258;2023-02-12T04:55:13;5.80;99.90
46898;DHT22;32646;50.958;6.258;2023-02-12T04:57:39;5.90;99.90
46898;DHT22;32646;50.958;6.258;2023-02-12T05:00:08;5.90;99.90
46898;DHT22;32646;50.958;6.258;2023-02-12T05:02:35;5.90;99.90
46898;DHT22;32646;50.958;6.258;2023-02-12T05:05:02;5.90;99.90
46898;DHT22;32646;50.958;6.258;2023-02-12T05:07:29;5.80;99.90
46898;DHT22;32646;50.958;6.258;2023-02-12T05:09:56;5.80;99.90
46898;DHT22;32646;50.958;6.258;2023-02-12T05:12:22;5.90;99.90
46898;DHT22;32646;50.958;6.258;2023-02-12T05:14:49;5.90;99.90
46898;DHT22;32646;50.958;6.258;2023-02-12T05:17:15;5.80;99.90
46898;DHT22;32646;50.958;6.258;2023-02-12T05:19:42;5.80;99.90
46898;DHT22;32646;50.958;6.258;2023-02-12T05:22:08;5.80;99.90
46898;DHT22;32646;50.958;6.258;2023-02-12T05:24:36;5.70;99.90
46898;DHT22;32646;50.958;6.258;2023-02-12T05:27:02;5.70;99.90
46898;DHT22;32646;50.958;6.258;2023-02-12T05:29:29;5.70;99.90
46898;DHT22;32646;50.958;6.258;2023-02-12T05:31:55;5.70;99.90
46898;DHT22;32646;50.958;6.258;2023-02-12T05:34:22;5.70;99.90
46898;DHT22;32646;50.958;6.258;2023-02-12T05:36:49;5.80;99.90
46898;DHT22;32646;50.958;6.258;2023-02-12T05:39:15;5.80;99.90
46898;DHT22;32646;50.958;6.258;2023-02-12T05:41:42;5.70;99.90
46898;DHT22;32646;50.958;6.258;2023-02-12T05:44:09;5.80;99.90
46898;DHT22;32646;50.958;6.258;2023-02-12T05:46:35;5.80;99.90
46898;DHT22;32646;50.958;6.258;2023-02-12T05:49:02;5.80;99.90
46898;DHT22;32646;50.958;6.258;2023-02-12T05:51:30;5.80;99.90
46898;DHT22;32646;50.958;6.258;2023-02-12T05:54:02;5.70;99.90
46898;DHT22;32646;50.958;6.258;2023-02-12T05:56:31;5.80;99.90
46898;DHT22;32646;50.958;6.258;2023-02-12T05:59:00;5.80;99.90
46898;DHT22;32646;50.958;6.258;2023-02-12T06:01:30;5.80;99.90
46898;DHT22;32646;50.958;6.258;2023-02-12T06:03:58;5.70;99.90
46898;DHT22;32646;50.958;6.258;2023-02-12T06:06:26;5.70;99.90
46898;DHT22;32646;50.958;6.258;2023-02-12T06:08:53;5.70;99.90
46898;DHT22;32646;50.958;6.258;2023-02-12T06:11:21;5.70;99.90
46898;DHT22;32646;50.958;6.258;2023-02-12T06:13:49;5.60;99.90
46898;DHT22;32646;50.958;6.258;2023-02-12T06:16:22;5.60;99.90
46898;DHT22;32646;50.958;6.258;2023-02-12T06:18:50;5.60;99.90
46898;DHT22;32646;50.958;6.258;2023-02-12T06:21:18;5.70;99.90
46898;DHT22;32646;50.958;6.258;2023-02-12T06:23:45;5.70;99.90
46898;DHT22;32646;50.958;6.258;2023-02-12T06:26:12;5.60;99.90
46898;DHT22;32646;50.958;6.258;2023-02-12T06:28:39;5.70;99.90
46898;DHT22;32646;50.958;6.258;2023-02-12T06:33:45;5.60;99.90
46898;DHT22;32646;50.958;6.258;2023-02-12T06:36:12;5.70;99.90
46898;DHT22;32646;50.958;6.258;2023-02-12T06:38:38;5.70;99.90
46898;DHT22;32646;50.958;6.258;2023-02-12T06:41:05;5.70;99.90
46898;DHT22;32646;50.958;6.258;2023-02-12T06:43:31;5.70;99.90
46898;DHT22;32646;50.958;6.258;2023-02-12T06:46:02;5.70;99.90
46898;DHT22;32646;50.958;6.258;2023-02-12T06:48:29;5.60;99.90
46898;DHT22;32646;50.958;6.258;2023-02-12T06:51:02;5.60;99.90
46898;DHT22;32646;50.958;6.258;2023-02-12T06:53:29;5.70;99.90
46898;DHT22;32646;50.958;6.258;2023-02-12T06:55:55;5.60;99.90
46898;DHT22;32646;50.958;6.258;2023-02-12T06:58:22;5.60;99.90
46898;DHT22;32646;50.958;6.258;2023-02-12T07:00:49;5.60;99.90
46898;DHT22;32646;50.958;6.258;2023-02-12T07:03:15;5.60;99.90
46898;DHT22;32646;50.958;6.258;2023-02-12T07:05:42;5.60;99.90
46898;DHT22;32646;50.958;6.258;2023-02-12T07:08:08;5.60;99.90
46898;DHT22;32646;50.958;6.258;2023-02-12T07:10:35;5.60;99.90
46898;DHT22;32646;50.958;6.258;2023-02-12T07:13:02;5.70;99.90
46898;DHT22;32646;50.958;6.258;2023-02-12T07:15:30;5.60;99.90
46898;DHT22;32646;50.958;6.258;2023-02-12T07:17:56;5.60;99.90
46898;DHT22;32646;50.958;6.258;2023-02-12T07:20:23;5.60;99.90
46898;DHT22;32646;50.958;6.258;2023-02-12T07:22:49;5.60;99.90
46898;DHT22;32646;50.958;6.258;2023-02-12T07:25:16;5.60;99.90
46898;DHT22;32646;50.958;6.258;2023-02-12T07:27:42;5.60;99.90
46898;DHT22;32646;50.958;6.258;2023-02-12T07:30:09;5.70;99.90
46898;DHT22;32646;50.958;6.258;2023-02-12T07:32:36;5.70;99.90
46898;DHT22;32646;50.958;6.258;2023-02-12T07:35:02;5.60;99.90
46898;DHT22;32646;50.958;6.258;2023-02-12T07:37:29;5.60;99.90
46898;DHT22;32646;50.958;6.258;2023-02-12T07:39:55;5.70;99.90
46898;DHT22;32646;50.958;6.258;2023-02-12T07:42:22;5.80;99.90
46898;DHT22;32646;50.958;6.258;2023-02-12T07:44:48;5.70;99.90
46898;DHT22;32646;50.958;6.258;2023-02-12T07:47:15;5.70;99.90
46898;DHT22;32646;50.958;6.258;2023-02-12T07:49:42;5.80;99.90
46898;DHT22;32646;50.958;6.258;2023-02-12T07:52:09;5.80;99.90
46898;DHT22;32646;50.958;6.258;2023-02-12T07:54:38;5.80;99.90
46898;DHT22;32646;50.958;6.258;2023-02-12T07:57:05;5.80;99.90
46898;DHT22;32646;50.958;6.258;2023-02-12T07:59:32;5.80;99.90
46898;DHT22;32646;50.958;6.258;2023-02-12T08:01:59;5.90;99.90
46898;DHT22;32646;50.958;6.258;2023-02-12T08:04:25;5.90;99.90
46898;DHT22;32646;50.958;6.258;2023-02-12T08:06:53;5.90;99.90
46898;DHT22;32646;50.958;6.258;2023-02-12T08:09:23;5.90;99.90
46898;DHT22;32646;50.958;6.258;2023-02-12T08:11:52;6.00;99.90
46898;DHT22;32646;50.958;6.258;2023-02-12T08:14:20;6.10;99.90
46898;DHT22;32646;50.958;6.258;2023-02-12T08:16:48;6.20;99.90
46898;DHT22;32646;50.958;6.258;2023-02-12T08:19:15;6.20;99.90
46898;DHT22;32646;50.958;6.258;2023-02-12T08:21:49;6.20;99.90
46898;DHT22;32646;50.958;6.258;2023-02-12T08:24:16;6.20;99.90
46898;DHT22;32646;50.958;6.258;2023-02-12T08:26:42;6.30;99.90
46898;DHT22;32646;50.958;6.258;2023-02-12T08:29:11;6.40;99.90
46898;DHT22;32646;50.958;6.258;2023-02-12T08:31:41;6.40;99.90
46898;DHT22;32646;50.958;6.258;2023-02-12T08:34:26;6.40;99.90
46898;DHT22;32646;50.958;6.258;2023-02-12T08:36:53;6.40;99.90
46898;DHT22;32646;50.958;6.258;2023-02-12T08:39:21;6.50;99.90
46898;DHT22;32646;50.958;6.258;2023-02-12T08:41:48;6.60;99.90
46898;DHT22;32646;50.958;6.258;2023-02-12T08:44:16;6.60;99.90
46898;DHT22;32646;50.958;6.258;2023-02-12T08:46:45;6.70;99.90
46898;DHT22;32646;50.958;6.258;2023-02-12T08:49:14;6.70;99.90
46898;DHT22;32646;50.958;6.258;2023-02-12T08:51:45;6.70;99.90
46898;DHT22;32646;50.958;6.258;2023-02-12T08:54:14;6.90;99.90
46898;DHT22;32646;50.958;6.258;2023-02-12T08:56:41;7.00;99.90
46898;DHT22;32646;50.958;6.258;2023-02-12T08:59:09;7.00;99.90
46898;DHT22;32646;50.958;6.258;2023-02-12T09:01:38;7.00;99.90
46898;DHT22;32646;50.958;6.258;2023-02-12T09:04:09;7.10;99.90
46898;DHT22;32646;50.958;6.258;2023-02-12T09:06:36;7.20;99.90
46898;DHT22;32646;50.958;6.258;2023-02-12T09:09:03;7.20;99.90
46898;DHT22;32646;50.958;6.258;2023-02-12T09:11:29;7.10;99.90
46898;DHT22;32646;50.958;6.258;2023-02-12T09:14:02;7.10;99.90
46898;DHT22;32646;50.958;6.258;2023-02-12T09:16:30;7.20;99.90
46898;DHT22;32646;50.958;6.258;2023-02-12T09:18:58;7.40;99.90
46898;DHT22;32646;50.958;6.258;2023-02-12T09:21:24;7.40;99.90
46898;DHT22;32646;50.958;6.258;2023-02-12T09:23:57;7.40;99.90
46898;DHT22;32646;50.958;6.258;2023-02-12T09:26:24;7.50;99.90
46898;DHT22;32646;50.958;6.258;2023-02-12T09:28:52;7.70;99.90
46898;DHT22;32646;50.958;6.258;2023-02-12T09:31:22;7.70;99.90
46898;DHT22;32646;50.958;6.258;2023-02-12T09:33:49;7.70;99.90
46898;DHT22;32646;50.958;6.258;2023-02-12T09:36:20;7.70;99.90
46898;DHT22;32646;50.958;6.258;2023-02-12T09:38:47;7.60;99.90
46898;DHT22;32646;50.958;6.258;2023-02-12T09:44:38;7.50;99.90
46898;DHT22;32646;50.958;6.258;2023-02-12T09:47:03;7.60;99.90
46898;DHT22;32646;50.958;6.258;2023-02-12T09:52:17;7.70;99.90
46898;DHT22;32646;50.958;6.258;2023-02-12T09:54:49;7.70;99.90
46898;DHT22;32646;50.958;6.258;2023-02-12T09:57:27;7.80;99.90
46898;DHT22;32646;50.958;6.258;2023-02-12T10:00:23;7.90;99.90
46898;DHT22;32646;50.958;6.258;2023-02-12T10:02:52;8.00;99.90
46898;DHT22;32646;50.958;6.258;2023-02-12T10:05:23;8.00;99.90
46898;DHT22;32646;50.958;6.258;2023-02-12T10:07:58;8.10;99.90
46898;DHT22;32646;50.958;6.258;2023-02-12T10:13:24;8.30;99.90
46898;DHT22;32646;50.958;6.258;2023-02-12T10:16:09;8.30;99.90
46898;DHT22;32646;50.958;6.258;2023-02-12T10:18:55;8.40;99.90
46898;DHT22;32646;50.958;6.258;2023-02-12T10:22:03;8.30;99.90
46898;DHT22;32646;50.958;6.258;2023-02-12T10:24:39;8.40;99.90
46898;DHT22;32646;50.958;6.258;2023-02-12T10:27:22;8.40;99.90
46898;DHT22;32646;50.958;6.258;2023-02-12T10:29:51;8.40;99.90
46898;DHT22;32646;50.958;6.258;2023-02-12T10:32:30;8.50;99.90
46898;DHT22;32646;50.958;6.258;2023-02-12T10:34:58;8.30;99.90
46898;DHT22;32646;50.958;6.258;2023-02-12T10:37:34;8.30;99.90
46898;DHT22;32646;50.958;6.258;2023-02-12T10:40:13;8.30;99.90
46898;DHT22;32646;50.958;6.258;2023-02-12T10:42:44;8.30;99.90
46898;DHT22;32646;50.958;6.258;2023-02-12T10:45:17;8.30;99.90
46898;DHT22;32646;50.958;6.258;2023-02-12T10:47:46;8.30;99.90
46898;DHT22;32646;50.958;6.258;2023-02-12T10:53:04;8.50;99.90
46898;DHT22;32646;50.958;6.258;2023-02-12T10:55:34;8.60;99.90
46898;DHT22;32646;50.958;6.258;2023-02-12T10:58:03;8.70;99.90
46898;DHT22;32646;50.958;6.258;2023-02-12T11:00:33;8.80;99.90
46898;DHT22;32646;50.958;6.258;2023-02-12T11:05:41;8.70;99.90
46898;DHT22;32646;50.958;6.258;2023-02-12T11:10:51;8.60;99.90
46898;DHT22;32646;50.958;6.258;2023-02-12T11:13:24;8.60;99.90
46898;DHT22;32646;50.958;6.258;2023-02-12T11:15:51;8.80;99.90
46898;DHT22;32646;50.958;6.258;2023-02-12T11:18:27;8.70;99.90
46898;DHT22;32646;50.958;6.258;2023-02-12T11:21:05;8.70;99.90
46898;DHT22;32646;50.958;6.258;2023-02-12T11:23:40;8.80;99.90
46898;DHT22;32646;50.958;6.258;2023-02-12T11:26:22;9.00;99.90
46898;DHT22;32646;50.958;6.258;2023-02-12T11:28:57;8.90;99.90
46898;DHT22;32646;50.958;6.258;2023-02-12T11:31:27;9.00;99.90
46898;DHT22;32646;50.958;6.258;2023-02-12T11:36:32;9.30;99.90
46898;DHT22;32646;50.958;6.258;2023-02-12T11:39:04;9.30;99.90
46898;DHT22;32646;50.958;6.258;2023-02-12T11:41:40;9.20;99.90
46898;DHT22;32646;50.958;6.258;2023-02-12T11:46:39;9.10;99.90
46898;DHT22;32646;50.958;6.258;2023-02-12T11:49:20;9.10;99.90
46898;DHT22;32646;50.958;6.258;2023-02-12T11:51:48;9.00;99.90
46898;DHT22;32646;50.958;6.258;2023-02-12T11:54:21;9.10;99.90
46898;DHT22;32646;50.958;6.258;2023-02-12T11:56:49;9.20;99.90
46898;DHT22;32646;50.958;6.258;2023-02-12T12:01:44;9.30;99.90
46898;DHT22;32646;50.958;6.258;2023-02-12T12:04:13;9.30;99.90
46898;DHT22;32646;50.958;6.258;2023-02-12T12:07:21;9.40;99.90
46898;DHT22;32646;50.958;6.258;2023-02-12T12:09:57;9.40;99.90
46898;DHT22;32646;50.958;6.258;2023-02-12T12:12:40;9.50;99.90
46898;DHT22;32646;50.958;6.258;2023-02-12T12:15:37;9.20;99.90
46898;DHT22;32646;50.958;6.258;2023-02-12T12:20:53;9.40;99.90
46898;DHT22;32646;50.958;6.258;2023-02-12T12:23:25;9.50;99.90
46898;DHT22;32646;50.958;6.258;2023-02-12T12:26:03;9.50;99.90
46898;DHT22;32646;50.958;6.258;2023-02-12T12:28:42;9.40;99.90
46898;DHT22;32646;50.958;6.258;2023-02-12T12:31:24;9.60;99.90
46898;DHT22;32646;50.958;6.258;2023-02-12T12:34:10;9.60;99.90
46898;DHT22;32646;50.958;6.258;2023-02-12T12:43:01;9.60;99.90
46898;DHT22;32646;50.958;6.258;2023-02-12T12:45:41;9.60;99.90
46898;DHT22;32646;50.958;6.258;2023-02-12T13:07:57;9.60;99.90
46898;DHT22;32646;50.958;6.258;2023-02-12T13:13:44;9.40;99.90
46898;DHT22;32646;50.958;6.258;2023-02-12T13:16:28;9.40;99.90
46898;DHT22;32646;50.958;6.258;2023-02-12T13:19:18;9.40;99.90
46898;DHT22;32646;50.958;6.258;2023-02-12T13:27:35;9.40;99.90
46898;DHT22;32646;50.958;6.258;2023-02-12T13:30:30;9.40;99.90
46898;DHT22;32646;50.958;6.258;2023-02-12T13:33:06;9.30;99.90
46898;DHT22;32646;50.958;6.258;2023-02-12T13:35:39;9.30;99.90
46898;DHT22;32646;50.958;6.258;2023-02-12T13:38:07;9.30;99.90
46898;DHT22;32646;50.958;6.258;2023-02-12T13:40:36;9.30;99.90
46898;DHT22;32646;50.958;6.258;2023-02-12T13:46:02;9.40;99.90
46898;DHT22;32646;50.958;6.258;2023-02-12T13:51:47;9.40;99.90
46898;DHT22;32646;50.958;6.258;2023-02-12T13:57:07;9.40;99.90
46898;DHT22;32646;50.958;6.258;2023-02-12T14:05:23;9.40;99.90
46898;DHT22;32646;50.958;6.258;2023-02-12T14:08:34;9.40;99.90
46898;DHT22;32646;50.958;6.258;2023-02-12T14:11:06;9.40;99.90
46898;DHT22;32646;50.958;6.258;2023-02-12T14:13:43;9.40;99.90
46898;DHT22;32646;50.958;6.258;2023-02-12T14:18:45;9.40;99.90
46898;DHT22;32646;50.958;6.258;2023-02-12T14:23:40;9.30;99.90
46898;DHT22;32646;50.958;6.258;2023-02-12T14:36:40;9.30;99.90
46898;DHT22;32646;50.958;6.258;2023-02-12T14:44:53;9.10;99.90
46898;DHT22;32646;50.958;6.258;2023-02-12T14:50:04;9.10;99.90
46898;DHT22;32646;50.958;6.258;2023-02-12T14:52:37;9.10;99.90
46898;DHT22;32646;50.958;6.258;2023-02-12T14:55:17;9.10;99.90
46898;DHT22;32646;50.958;6.258;2023-02-12T14:57:45;9.10;99.90
46898;DHT22;32646;50.958;6.258;2023-02-12T15:00:22;9.20;99.90
46898;DHT22;32646;50.958;6.258;2023-02-12T15:02:53;9.20;99.90
46898;DHT22;32646;50.958;6.258;2023-02-12T15:05:35;9.30;99.90
46898;DHT22;32646;50.958;6.258;2023-02-12T15:08:17;9.20;99.90
46898;DHT22;32646;50.958;6.258;2023-02-12T15:19:23;9.10;99.90
46898;DHT22;32646;50.958;6.258;2023-02-12T15:21:54;9.10;99.90
46898;DHT22;32646;50.958;6.258;2023-02-12T15:24:23;8.90;99.90
46898;DHT22;32646;50.958;6.258;2023-02-12T15:26:52;8.90;99.90
46898;DHT22;32646;50.958;6.258;2023-02-12T15:29:31;8.90;99.90
46898;DHT22;32646;50.958;6.258;2023-02-12T15:32:01;8.90;99.90
46898;DHT22;32646;50.958;6.258;2023-02-12T15:34:31;8.90;99.90
46898;DHT22;32646;50.958;6.258;2023-02-12T15:37:00;8.90;99.90
46898;DHT22;32646;50.958;6.258;2023-02-12T15:39:37;8.90;99.90
46898;DHT22;32646;50.958;6.258;2023-02-12T15:42:31;8.80;99.90
46898;DHT22;32646;50.958;6.258;2023-02-12T15:47:42;8.90;99.90
46898;DHT22;32646;50.958;6.258;2023-02-12T15:50:17;8.90;99.90
46898;DHT22;32646;50.958;6.258;2023-02-12T15:52:45;8.80;99.90
46898;DHT22;32646;50.958;6.258;2023-02-12T15:55:17;8.80;99.90
46898;DHT22;32646;50.958;6.258;2023-02-12T15:57:52;8.70;99.90
46898;DHT22;32646;50.958;6.258;2023-02-12T16:00:36;8.70;99.90
46898;DHT22;32646;50.958;6.258;2023-02-12T16:05:44;8.60;99.90
46898;DHT22;32646;50.958;6.258;2023-02-12T16:08:15;8.60;99.90
46898;DHT22;32646;50.958;6.258;2023-02-12T16:10:47;8.60;99.90
46898;DHT22;32646;50.958;6.258;2023-02-12T16:13:24;8.60;99.90
46898;DHT22;32646;50.958;6.258;2023-02-12T16:18:38;8.60;99.90
46898;DHT22;32646;50.958;6.258;2023-02-12T16:21:19;8.60;99.90
46898;DHT22;32646;50.958;6.258;2023-02-12T16:23:48;8.60;99.90
46898;DHT22;32646;50.958;6.258;2023-02-12T16:26:21;8.60;99.90
46898;DHT22;32646;50.958;6.258;2023-02-12T16:28:51;8.60;99.90
46898;DHT22;32646;50.958;6.258;2023-02-12T16:31:18;8.50;99.90
46898;DHT22;32646;50.958;6.258;2023-02-12T16:33:47;8.60;99.90
46898;DHT22;32646;50.958;6.258;2023-02-12T16:36:28;8.60;99.90
46898;DHT22;32646;50.958;6.258;2023-02-12T16:38:56;8.60;99.90
46898;DHT22;32646;50.958;6.258;2023-02-12T16:41:28;8.50;99.90
46898;DHT22;32646;50.958;6.258;2023-02-12T16:46:32;8.50;99.90
46898;DHT22;32646;50.958;6.258;2023-02-12T16:49:01;8.50;99.90
46898;DHT22;32646;50.958;6.258;2023-02-12T16:51:35;8.50;99.90
46898;DHT22;32646;50.958;6.258;2023-02-12T16:54:23;8.40;99.90
46898;DHT22;32646;50.958;6.258;2023-02-12T16:56:50;8.40;99.90
46898;DHT22;32646;50.958;6.258;2023-02-12T16:59:17;8.30;99.90
46898;DHT22;32646;50.958;6.258;2023-02-12T17:01:57;8.30;99.90
46898;DHT22;32646;50.958;6.258;2023-02-12T17:04:24;8.20;99.90
46898;DHT22;32646;50.958;6.258;2023-02-12T17:06:54;8.20;99.90
46898;DHT22;32646;50.958;6.258;2023-02-12T17:09:22;8.30;99.90
46898;DHT22;32646;50.958;6.258;2023-02-12T17:11:49;8.20;99.90
46898;DHT22;32646;50.958;6.258;2023-02-12T17:14:18;8.10;99.90
46898;DHT22;32646;50.958;6.258;2023-02-12T17:16:47;8.10;99.90
46898;DHT22;32646;50.958;6.258;2023-02-12T17:19:14;8.10;99.90
46898;DHT22;32646;50.958;6.258;2023-02-12T17:21:45;8.10;99.90
46898;DHT22;32646;50.958;6.258;2023-02-12T17:26:41;8.10;99.90
46898;DHT22;32646;50.958;6.258;2023-02-12T17:29:07;8.30;99.90
46898;DHT22;32646;50.958;6.258;2023-02-12T17:31:37;8.20;99.90
46898;DHT22;32646;50.958;6.258;2023-02-12T17:34:04;8.20;99.90
46898;DHT22;32646;50.958;6.258;2023-02-12T17:36:31;8.20;99.90
46898;DHT22;32646;50.958;6.258;2023-02-12T17:38:58;8.20;99.90
46898;DHT22;32646;50.958;6.258;2023-02-12T17:41:24;8.10;99.90
46898;DHT22;32646;50.958;6.258;2023-02-12T17:43:53;8.10;99.90
46898;DHT22;32646;50.958;6.258;2023-02-12T17:46:23;8.10;99.90
46898;DHT22;32646;50.958;6.258;2023-02-12T17:48:50;8.20;99.90
46898;DHT22;32646;50.958;6.258;2023-02-12T17:51:16;8.20;99.90
46898;DHT22;32646;50.958;6.258;2023-02-12T17:53:46;8.20;99.90
46898;DHT22;32646;50.958;6.258;2023-02-12T17:56:16;8.20;99.90
46898;DHT22;32646;50.958;6.258;2023-02-12T17:58:45;8.10;99.90
46898;DHT22;32646;50.958;6.258;2023-02-12T18:01:15;8.00;99.90
46898;DHT22;32646;50.958;6.258;2023-02-12T18:03:42;8.00;99.90
46898;DHT22;32646;50.958;6.258;2023-02-12T18:06:09;7.90;99.90
46898;DHT22;32646;50.958;6.258;2023-02-12T18:08:35;7.80;99.90
46898;DHT22;32646;50.958;6.258;2023-02-12T18:11:06;7.80;99.90
46898;DHT22;32646;50.958;6.258;2023-02-12T18:13:33;7.70;99.90
46898;DHT22;32646;50.958;6.258;2023-02-12T18:16:00;7.70;99.90
46898;DHT22;32646;50.958;6.258;2023-02-12T18:18:26;7.60;99.90
46898;DHT22;32646;50.958;6.258;2023-02-12T18:20:53;7.60;99.90
46898;DHT22;32646;50.958;6.258;2023-02-12T18:23:19;7.50;99.90
46898;DHT22;32646;50.958;6.258;2023-02-12T18:25:46;7.50;99.90
46898;DHT22;32646;50.958;6.258;2023-02-12T18:28:12;7.40;99.90
46898;DHT22;32646;50.958;6.258;2023-02-12T18:30:39;7.40;99.90
46898;DHT22;32646;50.958;6.258;2023-02-12T18:33:06;7.30;99.90